Time;durP1;ratioP1;P1;durP2;ratioP2;P2;SDS_P1;SDS_P2;PMS_P1;PMS_P2;Temp;Humidity;BMP_temperature;BMP_pressure;BME280_temperature;BME280_humidity;BME280_pressure;Samples;Min_cycle;Max_cycle;Signal;HPM_P1;HPM_P2
2023/10/30 00:01:19;;;;;;;5.33;4.20;;;13.40;80.30;;;13.57;53.55;95357.00;5003927;28;20482;-56
2023/10/30 00:03:49;;;;;;;11.50;4.17;;;13.40;80.80;;;13.56;53.49;95358.81;5002540;28;20590;-58
2023/10/30 00:06:16;;;;;;;9.77;3.30;;;13.30;81.10;;;13.57;53.84;95363.13;5001360;28;20482;-61
2023/10/30 00:08:45;;;;;;;5.23;3.10;;;13.30;81.50;;;13.56;53.91;95366.75;5003268;28;20457;-61
2023/10/30 00:11:13;;;;;;;5.20;3.17;;;13.30;82.20;;;13.57;54.04;95364.94;5004113;28;20481;-60
2023/10/30 00:13:41;;;;;;;22.73;4.70;;;13.30;82.00;;;13.57;54.03;95367.56;5004438;28;20501;-57
2023/10/30 00:16:10;;;;;;;11.03;3.20;;;13.30;82.30;;;13.56;54.18;95365.94;5003352;28;20477;-55
2023/10/30 00:18:38;;;;;;;7.07;5.10;;;13.30;82.10;;;13.55;54.12;95365.06;5001341;28;20462;-57
2023/10/30 00:21:08;;;;;;;9.03;4.70;;;13.30;82.40;;;13.54;53.93;95366.06;5001511;28;20467;-57
2023/10/30 00:23:36;;;;;;;4.70;3.33;;;13.30;82.60;;;13.53;53.93;95360.94;5001174;28;20490;-57
2023/10/30 00:26:05;;;;;;;4.67;3.43;;;13.30;82.80;;;13.51;54.31;95365.50;5002184;28;20553;-58
2023/10/30 00:28:34;;;;;;;4.60;3.10;;;13.30;83.30;;;13.49;54.45;95365.66;5003850;28;20497;-61
2023/10/30 00:31:02;;;;;;;6.47;3.63;;;13.30;83.30;;;13.47;54.62;95361.50;5002398;28;20647;-56
2023/10/30 00:33:30;;;;;;;6.47;3.63;;;13.20;83.60;;;13.45;54.42;95354.56;5000933;28;20447;-55
2023/10/30 00:35:57;;;;;;;8.53;3.27;;;13.20;83.60;;;13.43;54.80;95353.03;5002080;28;20553;-55
2023/10/30 00:38:26;;;;;;;6.87;3.30;;;13.20;83.70;;;13.41;54.49;95352.34;5003326;28;20453;-60
2023/10/30 00:40:56;;;;;;;10.80;3.60;;;13.20;83.80;;;13.38;54.37;95350.00;5003671;28;20551;-61
2023/10/30 00:43:23;;;;;;;11.10;4.77;;;13.20;84.00;;;13.36;54.74;95357.25;5002738;28;20576;-56
2023/10/30 00:45:51;;;;;;;6.80;3.27;;;13.10;84.50;;;13.32;54.55;95354.00;5000522;28;20476;-56
2023/10/30 00:48:19;;;;;;;7.73;4.07;;;13.10;83.80;;;13.27;54.25;95357.09;5001820;28;20455;-57
2023/10/30 00:50:46;;;;;;;10.97;3.70;;;13.10;83.90;;;13.27;54.92;95359.72;5002816;28;20854;-55
2023/10/30 00:53:13;;;;;;;8.43;4.43;;;13.10;84.20;;;13.26;55.11;95358.09;5002531;28;20445;-61
2023/10/30 00:55:42;;;;;;;7.60;3.90;;;13.00;84.30;;;13.25;54.71;95352.94;5002848;28;20477;-57
2023/10/30 00:58:09;;;;;;;6.00;3.80;;;13.00;84.30;;;13.23;54.80;95358.38;5000479;28;20461;-56
2023/10/30 01:00:37;;;;;;;7.90;4.20;;;13.00;84.60;;;13.22;54.77;95361.97;5000244;28;20489;-62
2023/10/30 01:03:04;;;;;;;6.97;4.50;;;13.00;85.00;;;13.20;54.87;95356.00;5002322;28;20507;-56
2023/10/30 01:05:31;;;;;;;8.20;4.00;;;13.00;85.00;;;13.19;54.93;95348.22;5000787;28;20482;-60
2023/10/30 01:07:59;;;;;;;4.47;3.50;;;13.00;85.00;;;13.18;54.90;95349.19;4999912;28;20912;-61
2023/10/30 01:10:26;;;;;;;6.50;3.30;;;13.00;86.40;;;13.17;54.98;95345.72;5001475;28;20612;-57
2023/10/30 01:12:55;;;;;;;7.17;4.17;;;12.90;85.20;;;13.16;55.17;95343.25;5001282;28;20453;-55
2023/10/30 01:15:23;;;;;;;7.80;4.13;;;12.90;85.40;;;13.14;55.40;95338.09;4999456;28;20986;-60
2023/10/30 01:17:50;;;;;;;4.70;3.83;;;12.90;85.60;;;13.09;55.72;95348.28;5000960;28;20486;-61
2023/10/30 01:20:18;;;;;;;6.57;3.97;;;12.90;85.80;;;13.07;55.37;95344.91;5002332;28;20473;-57
2023/10/30 01:22:45;;;;;;;6.33;3.80;;;12.90;86.00;;;13.02;55.10;95349.81;5002464;28;20455;-61
2023/10/30 01:25:12;;;;;;;11.70;3.47;;;12.80;85.90;;;12.99;55.32;95353.56;5001446;28;20509;-61
2023/10/30 01:27:40;;;;;;;7.77;3.40;;;12.80;86.10;;;12.94;55.29;95345.25;5001988;28;20930;-56
2023/10/30 01:30:11;;;;;;;7.63;3.47;;;12.70;86.50;;;12.91;55.41;95351.63;5001608;28;20477;-60
2023/10/30 01:32:38;;;;;;;6.43;3.40;;;12.70;86.50;;;12.88;55.67;95346.63;5001954;28;20448;-60
2023/10/30 01:35:06;;;;;;;4.47;3.20;;;12.70;87.00;;;12.88;55.80;95349.28;5001043;28;20489;-58
2023/10/30 01:37:33;;;;;;;7.17;3.40;;;12.70;86.80;;;12.87;55.76;95350.28;4999358;28;20465;-60
2023/10/30 01:40:00;;;;;;;7.70;3.70;;;12.70;87.30;;;12.85;55.85;95351.38;5000446;28;20481;-56
2023/10/30 01:42:28;;;;;;;4.17;2.80;;;12.70;87.80;;;12.84;55.90;95350.56;5001765;28;20469;-61
2023/10/30 01:44:55;;;;;;;11.17;3.60;;;12.60;87.70;;;12.85;56.06;95346.09;4999471;28;20596;-61
2023/10/30 01:47:24;;;;;;;7.63;3.43;;;12.70;88.10;;;12.82;55.84;95341.09;4999648;28;20541;-57
2023/10/30 01:49:51;;;;;;;7.10;3.20;;;12.60;88.00;;;12.81;55.65;95342.06;5001498;28;20465;-62
2023/10/30 01:52:19;;;;;;;4.50;2.90;;;12.60;88.00;;;12.79;56.21;95347.47;5000361;28;20996;-58
2023/10/30 01:54:46;;;;;;;6.20;3.13;;;12.60;88.50;;;12.75;56.16;95338.19;4999030;28;20855;-61
2023/10/30 01:57:14;;;;;;;3.83;2.97;;;12.60;88.40;;;12.76;56.36;95346.94;5000708;28;20453;-58
2023/10/30 01:59:42;;;;;;;8.10;2.97;;;12.60;88.70;;;12.74;56.56;95360.28;5001105;28;20493;-62
2023/10/30 02:02:09;;;;;;;3.00;2.70;;;12.60;89.00;;;12.71;56.24;95352.66;4998793;28;20462;-56
2023/10/30 02:04:38;;;;;;;6.90;2.70;;;12.50;88.80;;;12.70;56.20;95358.88;4999410;28;20493;-60
2023/10/30 02:07:06;;;;;;;18.10;3.57;;;12.50;88.80;;;12.68;56.22;95363.47;5001093;28;21004;-59
2023/10/30 02:09:33;;;;;;;2.87;2.40;;;12.50;89.20;;;12.66;56.03;95363.63;4999902;28;20528;-61
2023/10/30 02:12:00;;;;;;;3.70;2.17;;;12.50;90.00;;;12.66;56.58;95368.06;4998456;28;20521;-61
2023/10/30 02:14:28;;;;;;;5.53;2.40;;;12.50;89.40;;;12.65;56.46;95366.41;5000393;28;20539;-60
2023/10/30 02:16:55;;;;;;;4.67;2.63;;;12.40;89.70;;;12.64;56.28;95370.00;5000651;28;20503;-60
2023/10/30 02:19:23;;;;;;;4.10;2.47;;;12.40;89.80;;;12.64;56.59;95370.00;4998163;28;20485;-56
2023/10/30 02:21:52;;;;;;;6.87;3.00;;;12.40;89.80;;;12.62;56.34;95364.03;4999131;28;20478;-56
2023/10/30 02:24:20;;;;;;;2.87;2.60;;;12.40;90.10;;;12.58;56.53;95366.13;5000396;28;20548;-62
2023/10/30 02:26:48;;;;;;;10.47;3.13;;;12.40;90.00;;;12.58;56.63;95362.66;4999866;28;20454;-56
2023/10/30 02:29:16;;;;;;;4.77;2.73;;;12.40;90.20;;;12.55;56.83;95359.31;5000898;28;20466;-60
2023/10/30 02:31:43;;;;;;;3.40;2.80;;;12.40;90.20;;;12.54;56.98;95367.38;4998839;28;20470;-61
2023/10/30 02:34:11;;;;;;;4.43;3.27;;;12.30;90.20;;;12.52;56.74;95364.88;4998779;28;20479;-56
2023/10/30 02:36:38;;;;;;;5.90;2.93;;;12.30;90.30;;;12.48;56.86;95360.84;5000909;28;20452;-60
2023/10/30 02:39:07;;;;;;;5.37;2.70;;;12.30;90.20;;;12.46;56.92;95368.06;4999441;28;21235;-56
2023/10/30 02:41:34;;;;;;;6.60;2.53;;;12.30;90.40;;;12.43;57.00;95362.25;4998445;28;20545;-59
2023/10/30 02:44:03;;;;;;;4.53;2.50;;;12.30;90.60;;;12.40;56.89;95363.34;5000180;28;20494;-59
2023/10/30 02:46:30;;;;;;;4.40;2.40;;;12.20;90.50;;;12.38;57.02;95362.66;5000599;28;20468;-57
2023/10/30 02:48:57;;;;;;;9.00;3.40;;;12.20;90.60;;;12.36;56.92;95352.25;4998911;28;20472;-55
2023/10/30 02:51:25;;;;;;;6.67;3.10;;;12.20;90.70;;;12.36;56.93;95364.59;4999209;28;20454;-60
2023/10/30 02:53:52;;;;;;;3.33;2.60;;;12.20;90.80;;;12.33;57.22;95357.81;5000443;28;20462;-56
2023/10/30 02:56:19;;;;;;;3.83;3.37;;;12.10;90.90;;;12.34;56.91;95354.19;4999488;28;20512;-57
2023/10/30 02:58:46;;;;;;;5.60;3.00;;;12.10;90.80;;;12.33;57.46;95367.50;4998031;28;20458;-60
2023/10/30 03:01:15;;;;;;;4.03;2.63;;;12.20;91.10;;;12.31;57.20;95364.19;5000065;28;20947;-57
2023/10/30 03:03:42;;;;;;;4.13;3.17;;;12.10;91.00;;;12.29;57.12;95364.31;5000202;28;20978;-57
2023/10/30 03:06:10;;;;;;;7.50;3.13;;;12.10;91.10;;;12.29;57.41;95371.41;4997979;28;20990;-59
2023/10/30 03:08:37;;;;;;;4.87;3.53;;;12.10;91.30;;;12.26;57.54;95367.25;4999005;28;20457;-56
2023/10/30 03:11:04;;;;;;;8.07;3.07;;;12.10;91.20;;;12.24;57.33;95371.81;5000380;28;21080;-59
2023/10/30 03:13:32;;;;;;;8.80;3.60;;;12.10;91.20;;;12.23;57.71;95364.06;4999005;28;20656;-60
2023/10/30 03:15:59;;;;;;;3.57;2.70;;;12.00;91.40;;;12.20;57.60;95363.34;4998598;28;20474;-60
2023/10/30 03:18:28;;;;;;;10.60;3.50;;;12.00;91.30;;;12.18;57.77;95375.84;4998335;28;20525;-60
2023/10/30 03:20:55;;;;;;;5.40;3.80;;;12.00;91.40;;;12.17;57.61;95381.25;4998842;28;20970;-55
2023/10/30 03:23:23;;;;;;;8.17;4.20;;;12.00;91.40;;;12.16;57.58;95383.06;5000491;28;20450;-55
2023/10/30 03:25:50;;;;;;;7.10;3.47;;;12.00;91.30;;;12.16;57.62;95385.69;4998641;28;20497;-55
2023/10/30 03:28:17;;;;;;;8.83;4.40;;;12.00;91.40;;;12.16;57.40;95377.78;4997366;28;20485;-60
2023/10/30 03:30:45;;;;;;;10.60;4.30;;;12.00;91.40;;;12.14;57.38;95374.44;4999946;28;20477;-57
2023/10/30 03:33:13;;;;;;;5.93;3.90;;;11.90;91.30;;;12.13;57.48;95385.97;4999187;28;20464;-61
2023/10/30 03:35:41;;;;;;;10.43;4.00;;;12.00;91.40;;;12.10;57.67;95386.25;4998017;28;21027;-56
2023/10/30 03:38:08;;;;;;;16.77;5.93;;;12.00;91.40;;;12.10;57.59;95386.25;5001258;28;20550;-62
2023/10/30 03:40:36;;;;;;;12.70;4.37;;;11.90;91.40;;;12.08;57.54;95384.69;5002215;28;20617;-56
2023/10/30 03:43:03;;;;;;;6.93;3.80;;;11.90;91.40;;;12.08;57.57;95385.53;5001116;28;20569;-56
2023/10/30 03:45:31;;;;;;;6.47;4.20;;;11.90;91.60;;;12.05;57.44;95385.78;5001050;28;20498;-59
2023/10/30 03:47:58;;;;;;;9.37;3.80;;;11.90;91.50;;;12.02;57.46;95391.34;5001745;28;20458;-57
2023/10/30 03:50:26;;;;;;;8.83;4.27;;;11.80;91.50;;;11.99;57.27;95389.84;5003032;28;20517;-61
2023/10/30 03:52:54;;;;;;;13.13;5.30;;;11.80;91.50;;;11.97;57.65;95381.19;5003893;28;20462;-63
2023/10/30 03:55:21;;;;;;;8.30;4.13;;;11.80;91.80;;;11.93;57.87;95384.25;5002632;28;20585;-61
2023/10/30 03:57:49;;;;;;;8.10;4.70;;;11.80;91.70;;;11.90;58.35;95382.69;5001317;28;21227;-56
2023/10/30 04:00:17;;;;;;;13.33;4.07;;;11.70;91.90;;;11.90;57.63;95387.13;5003597;28;20485;-55
2023/10/30 04:02:45;;;;;;;7.60;3.83;;;11.70;91.90;;;11.88;57.89;95384.63;5003947;28;20879;-61
2023/10/30 04:05:12;;;;;;;14.47;4.87;;;11.70;91.90;;;11.88;57.94;95395.16;5001114;28;20557;-57
2023/10/30 04:07:40;;;;;;;17.57;5.40;;;11.70;92.00;;;11.87;57.93;95387.38;5002120;28;21145;-57
2023/10/30 04:10:10;;;;;;;10.10;5.20;;;11.70;92.10;;;11.88;58.34;95389.06;5004060;28;20481;-61
2023/10/30 04:12:38;;;;;;;9.73;4.10;;;11.70;92.20;;;11.86;58.09;95389.19;5002303;28;20450;-57
2023/10/30 04:15:07;;;;;;;8.87;3.80;;;11.70;92.10;;;11.85;57.92;95384.91;5001013;28;20479;-60
2023/10/30 04:17:34;;;;;;;10.20;4.43;;;11.70;92.10;;;11.84;58.39;95383.25;5002533;28;20516;-62
2023/10/30 04:20:02;;;;;;;7.33;4.57;;;11.70;92.30;;;11.82;58.28;95383.38;5003285;28;20528;-55
2023/10/30 04:22:29;;;;;;;14.63;4.10;;;11.70;92.30;;;11.80;58.33;95381.84;5004512;28;20578;-57
2023/10/30 04:24:56;;;;;;;12.20;4.50;;;11.70;92.50;;;11.78;58.46;95389.88;5001626;28;20501;-56
2023/10/30 04:27:25;;;;;;;7.97;4.70;;;11.60;92.60;;;11.77;58.39;95382.09;5003008;28;20939;-61
2023/10/30 04:29:52;;;;;;;9.53;4.50;;;11.60;92.60;;;11.75;58.09;95384.88;5001954;28;20477;-60
2023/10/30 04:32:19;;;;;;;11.87;4.30;;;11.60;92.60;;;11.73;58.57;95378.91;5000752;28;20451;-57
2023/10/30 04:34:47;;;;;;;9.90;5.00;;;11.60;92.50;;;11.72;58.47;95387.78;5002574;28;20469;-62
2023/10/30 04:37:14;;;;;;;10.03;4.57;;;11.50;92.50;;;11.69;58.33;95388.03;5002628;28;20538;-63
2023/10/30 04:39:41;;;;;;;8.90;4.10;;;11.50;92.50;;;11.69;58.72;95389.84;5000540;28;20556;-63
2023/10/30 04:42:09;;;;;;;10.33;4.43;;;11.50;92.70;;;11.67;58.69;95382.09;5001829;28;20457;-57
2023/10/30 04:44:38;;;;;;;11.20;4.13;;;11.50;92.70;;;11.65;58.42;95381.38;5002621;28;20504;-55
2023/10/30 04:47:07;;;;;;;19.43;5.47;;;11.50;92.70;;;11.63;58.79;95393.84;5000322;28;20473;-62
2023/10/30 04:49:36;;;;;;;11.87;4.77;;;11.50;92.80;;;11.60;58.98;95379.16;5000471;28;20486;-63
2023/10/30 04:52:04;;;;;;;9.57;5.40;;;11.40;92.90;;;11.59;58.68;95384.56;5002375;28;20507;-62
2023/10/30 04:54:31;;;;;;;27.43;4.77;;;11.40;92.80;;;11.57;58.76;95386.47;5002405;28;20985;-61
2023/10/30 04:56:58;;;;;;;12.90;4.60;;;11.40;92.80;;;11.55;58.74;95386.59;5002831;28;20938;-62
2023/10/30 04:59:26;;;;;;;20.73;6.63;;;11.40;92.90;;;11.54;59.04;95389.38;5001595;28;20482;-62
2023/10/30 05:01:54;;;;;;;8.70;5.17;;;11.40;93.10;;;11.53;58.84;95391.19;4999629;28;20458;-56
2023/10/30 05:04:22;;;;;;;8.87;4.70;;;11.40;93.00;;;11.51;58.79;95387.84;5001171;28;20476;-62
2023/10/30 05:06:49;;;;;;;13.60;5.33;;;11.40;93.10;;;11.51;59.07;95392.28;5002453;28;20458;-62
2023/10/30 05:09:16;;;;;;;16.33;5.37;;;11.40;93.20;;;11.51;59.03;95392.28;4999956;28;20474;-62
2023/10/30 05:11:44;;;;;;;13.93;4.70;;;11.30;93.20;;;11.50;58.60;95395.91;5000230;28;20521;-58
2023/10/30 05:14:11;;;;;;;20.70;5.10;;;11.30;93.20;;;11.51;59.07;95400.19;5001859;28;20990;-56
2023/10/30 05:16:38;;;;;;;6.43;3.80;;;11.30;93.30;;;11.52;59.23;95402.69;5000486;28;20590;-62
2023/10/30 05:19:07;;;;;;;14.90;5.00;;;11.40;93.40;;;11.53;59.31;95407.00;4999430;28;20486;-57
2023/10/30 05:21:34;;;;;;;12.37;4.17;;;11.40;93.40;;;11.55;59.28;95409.50;5001676;28;20846;-62
2023/10/30 05:24:01;;;;;;;15.10;5.77;;;11.40;93.50;;;11.58;59.39;95414.50;4998580;28;20446;-56
2023/10/30 05:26:29;;;;;;;13.90;4.50;;;11.40;93.60;;;11.60;59.19;95413.41;5001615;28;20496;-62
2023/10/30 05:28:56;;;;;;;10.40;4.20;;;11.50;93.50;;;11.65;59.03;95420.91;5000797;28;20461;-61
2023/10/30 05:31:24;;;;;;;10.40;4.00;;;11.50;93.50;;;11.68;58.92;95420.66;4999394;28;20521;-60
2023/10/30 05:33:51;;;;;;;38.33;5.07;;;11.50;93.40;;;11.71;58.97;95423.03;4999914;28;20465;-56
2023/10/30 05:36:20;;;;;;;15.80;4.10;;;11.50;93.40;;;11.74;59.06;95424.53;5001947;28;20798;-61
2023/10/30 05:38:47;;;;;;;15.10;5.20;;;11.60;93.50;;;11.79;59.09;95431.09;4999835;28;20829;-57
2023/10/30 05:41:14;;;;;;;18.53;4.10;;;11.60;93.50;;;11.87;58.95;95424.28;5000336;28;20911;-61
2023/10/30 05:43:42;;;;;;;10.33;4.53;;;11.70;93.60;;;11.93;58.88;95435.19;5001674;28;20449;-61
2023/10/30 05:46:09;;;;;;;9.93;4.50;;;11.70;93.40;;;12.03;58.77;95435.19;5000618;28;20516;-56
2023/10/30 05:48:36;;;;;;;11.10;4.47;;;11.80;93.30;;;12.17;58.47;95442.72;4998279;28;20998;-56
2023/10/30 05:51:04;;;;;;;10.53;4.37;;;11.90;93.30;;;12.41;58.67;95438.91;5000280;28;20970;-61
2023/10/30 05:53:32;;;;;;;12.23;5.30;;;12.10;93.50;;;12.70;58.20;95432.78;5000987;28;20452;-60
2023/10/30 05:56:00;;;;;;;13.40;4.87;;;12.40;93.40;;;13.02;57.93;95436.94;4999369;28;20479;-62
2023/10/30 05:58:27;;;;;;;12.87;5.20;;;12.60;93.10;;;13.39;56.94;95438.88;4999900;28;20571;-60
2023/10/30 06:00:54;;;;;;;11.67;4.20;;;13.00;92.50;;;13.74;56.48;95437.34;5001167;28;20547;-58
2023/10/30 06:03:22;;;;;;;15.97;3.77;;;13.30;92.00;;;14.11;55.49;95441.78;4999200;28;20458;-59
2023/10/30 06:05:49;;;;;;;9.97;4.57;;;13.60;91.40;;;14.49;54.83;95448.66;4999615;28;20494;-61
2023/10/30 06:08:18;;;;;;;19.13;4.67;;;14.00;91.00;;;14.89;54.41;95433.34;4998761;28;20863;-57
2023/10/30 06:10:46;;;;;;;12.90;4.83;;;14.40;90.30;;;15.33;53.61;95446.59;5000075;28;20604;-60
2023/10/30 06:13:15;;;;;;;17.53;4.13;;;14.80;89.40;;;15.77;52.97;95448.41;5001553;28;20449;-61
2023/10/30 06:15:42;;;;;;;24.33;5.10;;;15.20;88.10;;;16.19;51.99;95449.38;5000400;28;20656;-55
2023/10/30 06:18:10;;;;;;;19.30;4.50;;;15.60;86.10;;;16.63;51.54;95452.69;4998990;28;20462;-62
2023/10/30 06:20:38;;;;;;;16.20;5.17;;;16.10;84.70;;;17.10;50.53;95456.59;5001071;28;20465;-62
2023/10/30 06:23:05;;;;;;;24.20;6.83;;;16.50;83.20;;;17.56;49.93;95448.91;5001503;28;20465;-58
2023/10/30 06:25:32;;;;;;;20.50;5.33;;;16.90;81.70;;;18.04;49.28;95459.63;4998970;28;20498;-57
2023/10/30 06:28:01;;;;;;;11.50;5.17;;;17.40;80.30;;;18.53;48.98;95457.75;5000168;28;20533;-62
2023/10/30 06:30:28;;;;;;;11.87;5.47;;;17.90;79.10;;;19.01;47.81;95452.31;5001919;28;20867;-62
2023/10/30 06:32:55;;;;;;;15.50;4.97;;;18.40;77.60;;;19.51;47.64;95456.25;4999142;28;20948;-61
2023/10/30 06:35:23;;;;;;;11.60;4.80;;;18.90;75.80;;;20.01;46.76;95464.63;4999161;28;20499;-58
2023/10/30 06:37:50;;;;;;;15.47;4.50;;;19.40;74.40;;;20.51;46.01;95462.19;5000698;28;20460;-62
2023/10/30 06:40:17;;;;;;;16.10;6.30;;;19.90;73.60;;;20.95;45.45;95453.28;5000750;28;20509;-61
2023/10/30 06:42:45;;;;;;;14.27;6.20;;;20.30;72.30;;;21.39;44.88;95449.56;4999017;28;20459;-57
2023/10/30 06:45:13;;;;;;;17.60;5.73;;;20.70;70.60;;;21.83;44.67;95451.16;4999996;28;20576;-61
2023/10/30 06:47:41;;;;;;;11.73;5.23;;;21.10;70.00;;;22.26;43.15;95455.56;5001501;28;20460;-60
2023/10/30 06:50:09;;;;;;;15.10;5.90;;;21.60;68.40;;;22.68;43.08;95456.38;4999731;28;20506;-56
2023/10/30 06:52:36;;;;;;;14.03;6.23;;;22.00;67.60;;;23.07;42.13;95444.09;4998978;28;20458;-60
2023/10/30 06:55:04;;;;;;;11.47;5.70;;;22.40;65.40;;;23.48;42.05;95442.31;4999189;28;20474;-62
2023/10/30 06:57:31;;;;;;;11.00;5.80;;;22.90;64.90;;;23.86;40.24;95447.06;4999803;28;20457;-57
2023/10/30 06:59:59;;;;;;;13.20;7.23;;;23.30;62.50;;;24.23;40.67;95450.09;5001025;28;21001;-57
2023/10/30 07:02:27;;;;;;;24.80;9.77;;;23.70;61.50;;;24.65;40.16;95447.91;4999113;28;20510;-58
2023/10/30 07:04:55;;;;;;;23.10;7.63;;;24.10;60.90;;;25.06;38.87;95449.34;4997702;28;20474;-58
2023/10/30 07:07:22;;;;;;;10.90;6.70;;;24.50;59.70;;;25.45;38.64;95445.81;5000372;28;20459;-57
2023/10/30 07:09:50;;;;;;;18.90;11.20;;;25.00;58.70;;;25.81;38.02;95452.34;5001621;28;20477;-62
2023/10/30 07:12:17;;;;;;;20.73;9.10;;;25.50;57.80;;;26.16;37.31;95449.97;5002509;28;20454;-57
2023/10/30 07:14:44;;;;;;;23.47;8.23;;;25.90;56.70;;;26.50;36.43;95457.69;5003605;28;20477;-59
2023/10/30 07:17:11;;;;;;;16.10;7.50;;;26.40;55.00;;;26.82;35.78;95451.09;5005610;28;20488;-58
2023/10/30 07:19:40;;;;;;;24.17;8.07;;;26.90;54.40;;;27.14;35.50;95452.75;5003169;28;20473;-64
2023/10/30 07:22:08;;;;;;;14.97;7.60;;;27.30;53.60;;;27.38;34.54;95453.69;5002437;28;20462;-58
2023/10/30 07:24:36;;;;;;;18.90;7.93;;;27.60;52.00;;;27.59;34.42;95456.88;5002274;28;20572;-63
2023/10/30 07:27:03;;;;;;;18.93;8.50;;;27.90;51.50;;;27.72;34.19;95454.78;5003032;28;20536;-62
2023/10/30 07:29:31;;;;;;;17.30;8.03;;;28.10;50.80;;;27.83;33.66;95450.44;5005810;28;20475;-62
2023/10/30 07:31:58;;;;;;;22.30;8.23;;;28.20;49.70;;;27.93;32.93;95454.44;5004324;28;20449;-62
2023/10/30 07:34:25;;;;;;;20.80;7.07;;;28.30;49.60;;;28.04;33.21;95449.09;5003731;28;20476;-58
2023/10/30 07:36:54;;;;;;;13.97;6.80;;;28.30;49.50;;;28.15;32.35;95452.84;5002958;28;20478;-63
2023/10/30 07:39:21;;;;;;;16.63;8.07;;;28.20;48.90;;;28.19;32.31;95451.28;5002467;28;20465;-57
2023/10/30 07:41:48;;;;;;;12.63;7.50;;;28.10;48.60;;;28.23;32.63;95451.66;5004388;28;20503;-62
2023/10/30 07:44:16;;;;;;;18.20;7.57;;;28.00;48.40;;;28.26;31.78;95449.31;5003433;28;20482;-58
2023/10/30 07:46:43;;;;;;;28.23;7.80;;;28.00;48.20;;;28.24;31.66;95446.03;5001907;28;20875;-62
2023/10/30 07:49:10;;;;;;;26.27;7.57;;;27.90;48.10;;;28.20;32.29;95446.72;5003429;28;20468;-57
2023/10/30 07:51:37;;;;;;;12.30;7.27;;;27.90;48.00;;;28.18;31.67;95451.53;5004451;28;20453;-57
2023/10/30 07:54:07;;;;;;;27.37;7.00;;;27.80;47.90;;;28.22;31.74;95450.81;5004246;28;20483;-58
2023/10/30 07:56:34;;;;;;;14.40;6.83;;;27.80;47.80;;;28.32;31.57;95444.00;5003871;28;20457;-60
2023/10/30 07:59:01;;;;;;;19.90;8.00;;;27.80;47.70;;;28.46;31.75;95445.41;5002328;28;20465;-57
2023/10/30 08:01:28;;;;;;;14.07;7.40;;;27.90;47.50;;;28.56;31.27;95442.06;5003492;28;20456;-61
2023/10/30 08:03:56;;;;;;;11.33;5.50;;;28.00;47.50;;;28.61;30.86;95444.91;5003292;28;20465;-61
2023/10/30 08:06:24;;;;;;;12.13;6.50;;;28.00;47.20;;;28.69;30.73;95443.72;5001979;28;20494;-61
2023/10/30 08:08:51;;;;;;;19.73;7.43;;;28.10;47.10;;;28.78;30.42;95439.56;5001944;28;20946;-62
2023/10/30 08:11:20;;;;;;;20.40;7.73;;;28.20;46.90;;;28.89;30.79;95436.00;5004333;28;20970;-59
2023/10/30 08:13:48;;;;;;;16.10;6.50;;;28.30;46.80;;;28.97;30.65;95437.50;5002963;28;20448;-58
2023/10/30 08:16:15;;;;;;;14.40;6.80;;;28.40;46.30;;;29.00;30.21;95431.59;5001889;28;20450;-58
2023/10/30 08:18:42;;;;;;;13.40;7.03;;;28.40;46.30;;;29.13;30.16;95430.50;5002958;28;20460;-59
2023/10/30 08:21:09;;;;;;;18.37;6.60;;;28.50;46.20;;;29.29;29.77;95424.28;5003834;28;20448;-61
2023/10/30 08:23:37;;;;;;;13.07;6.00;;;28.60;46.10;;;29.43;30.00;95418.56;5001497;28;21001;-58
2023/10/30 08:26:05;;;;;;;14.80;7.40;;;28.70;45.80;;;29.56;29.83;95423.69;5002248;28;20489;-63
2023/10/30 08:28:33;;;;;;;17.90;7.17;;;28.90;45.50;;;29.68;29.76;95419.00;5003538;28;20449;-63
2023/10/30 08:31:01;;;;;;;12.70;6.77;;;29.00;45.00;;;29.83;30.07;95420.31;5002175;28;20485;-58
2023/10/30 08:33:28;;;;;;;20.47;6.57;;;29.10;45.10;;;29.98;29.33;95420.56;5000499;28;20454;-57
2023/10/30 08:35:56;;;;;;;15.67;7.10;;;29.30;44.70;;;30.12;28.75;95421.03;5002782;28;20484;-60
2023/10/30 08:38:23;;;;;;;20.70;7.53;;;29.40;44.20;;;30.24;28.76;95422.81;5003725;28;20453;-62
2023/10/30 08:40:51;;;;;;;13.37;7.10;;;29.60;44.50;;;30.29;29.22;95426.41;5000803;28;20234;-56
2023/10/30 08:43:18;;;;;;;13.87;6.00;;;29.60;44.20;;;30.42;28.94;95435.31;5002011;28;21401;-62
2023/10/30 08:45:47;;;;;;;14.97;6.33;;;29.70;44.20;;;30.60;28.09;95436.88;5003088;28;20493;-61
2023/10/30 08:48:14;;;;;;;12.30;6.20;;;29.90;43.70;;;30.75;28.66;95421.59;5002260;28;20974;-61
2023/10/30 08:50:41;;;;;;;17.13;6.40;;;30.00;43.80;;;30.85;27.80;95420.06;5001217;28;20227;-56
2023/10/30 08:53:09;;;;;;;13.83;6.53;;;30.10;43.30;;;30.97;27.72;95418.06;5001194;28;20230;-61
2023/10/30 08:55:36;;;;;;;7.40;5.83;;;30.20;42.80;;;31.13;28.08;95420.94;5001142;28;20494;-58
2023/10/30 08:58:03;;;;;;;20.90;6.77;;;30.40;42.80;;;31.25;27.84;95418.91;5003081;28;20211;-56
2023/10/30 09:00:31;;;;;;;10.53;6.40;;;30.50;42.90;;;31.36;28.21;95411.66;5002200;28;20314;-56
2023/10/30 09:02:59;;;;;;;17.20;6.80;;;30.60;42.50;;;31.50;27.87;95418.31;5000131;28;20198;-60
2023/10/30 09:05:27;;;;;;;17.37;6.30;;;30.80;42.40;;;31.59;27.35;95416.78;5002456;28;20655;-62
2023/10/30 09:07:54;;;;;;;15.47;6.87;;;30.90;41.90;;;31.66;27.53;95402.94;5002651;28;20202;-59
2023/10/30 09:10:26;;;;;;;7.37;4.87;;;30.90;41.90;;;31.67;27.14;95398.31;5000503;28;20223;-57
2023/10/30 09:12:53;;;;;;;13.40;6.90;;;31.00;41.80;;;31.67;27.43;95398.31;5000995;28;20195;-57
2023/10/30 09:15:21;;;;;;;12.97;6.13;;;31.00;41.80;;;31.70;27.01;95397.81;5002688;28;20222;-60
2023/10/30 09:17:48;;;;;;;18.80;6.60;;;31.00;41.50;;;31.63;27.07;95392.59;5002128;28;20301;-56
2023/10/30 09:20:17;;;;;;;9.60;6.17;;;31.00;41.40;;;31.47;27.19;95391.63;5000021;28;20738;-57
2023/10/30 09:22:44;;;;;;;14.67;6.40;;;30.90;41.30;;;31.39;27.15;95382.06;5001855;28;20217;-62
2023/10/30 09:25:12;;;;;;;9.03;5.50;;;30.80;41.00;;;31.37;26.94;95381.50;5002615;28;20232;-62
2023/10/30 09:27:39;;;;;;;15.47;6.93;;;30.70;41.20;;;31.44;27.17;95376.66;4999933;28;20246;-62
2023/10/30 09:30:08;;;;;;;10.33;5.67;;;30.70;41.30;;;31.58;27.11;95381.69;5000987;28;20298;-62
2023/10/30 09:32:35;;;;;;;12.00;5.77;;;30.80;41.50;;;31.53;27.13;95377.00;5000891;28;20209;-59
2023/10/30 09:35:03;;;;;;;11.77;5.67;;;30.80;41.10;;;31.41;27.54;95376.34;5001005;28;20238;-58
2023/10/30 09:37:31;;;;;;;11.17;5.53;;;30.80;41.60;;;31.32;27.55;95367.84;4999669;28;20234;-62
2023/10/30 09:39:59;;;;;;;19.57;5.60;;;30.70;41.70;;;31.34;27.53;95371.13;5001676;28;20234;-61
2023/10/30 09:42:26;;;;;;;15.20;6.00;;;30.70;42.00;;;31.41;27.58;95360.03;5002394;28;20253;-59
2023/10/30 09:44:53;;;;;;;8.23;6.23;;;30.70;42.00;;;31.34;27.13;95357.53;5000178;28;20289;-62
2023/10/30 09:47:20;;;;;;;23.57;6.50;;;30.70;41.70;;;31.23;28.11;95353.94;5000687;28;20593;-56
2023/10/30 09:49:48;;;;;;;23.07;7.20;;;30.60;42.00;;;31.14;27.98;95354.63;5001790;28;20226;-56
2023/10/30 09:52:15;;;;;;;15.73;6.13;;;30.60;42.20;;;31.08;28.13;95346.44;5000651;28;20246;-61
2023/10/30 09:54:44;;;;;;;12.47;6.00;;;30.50;42.50;;;31.15;27.99;95340.78;4999520;28;20234;-62
2023/10/30 09:57:12;;;;;;;14.00;6.40;;;30.50;42.70;;;31.31;28.17;95335.47;4999775;28;20306;-57
2023/10/30 09:59:39;;;;;;;11.13;6.63;;;30.60;42.80;;;31.46;27.78;95335.59;4999530;28;20239;-62
2023/10/30 10:02:07;;;;;;;21.90;7.10;;;30.70;42.80;;;31.60;28.10;95330.56;5001093;28;20750;-60
2023/10/30 10:04:34;;;;;;;21.90;6.57;;;30.90;42.80;;;31.69;28.09;95328.19;4999719;28;20293;-61
2023/10/30 10:07:01;;;;;;;13.80;5.53;;;31.00;42.60;;;31.80;28.01;95327.16;4998987;28;20235;-61
2023/10/30 10:09:29;;;;;;;13.10;7.00;;;31.10;42.60;;;31.88;27.95;95320.41;5001274;28;20229;-62
2023/10/30 10:11:58;;;;;;;18.70;7.27;;;31.20;42.40;;;31.91;27.96;95317.97;5001156;28;20210;-61
2023/10/30 10:14:25;;;;;;;15.23;7.13;;;31.20;42.40;;;31.94;28.14;95313.91;4999372;28;20313;-62
2023/10/30 10:16:53;;;;;;;20.47;6.00;;;31.30;42.50;;;31.92;28.11;95307.91;4999549;28;20623;-57